createdAt,value
2022-12-01T00:01:59.201Z,0.57
2022-12-01T00:05:01.348Z,0.53
2022-12-01T00:08:05.267Z,0.47
2022-12-01T00:11:14.830Z,0.42
2022-12-01T00:14:16.887Z,0.35
2022-12-01T00:17:18.947Z,0.30
2022-12-01T00:20:21.267Z,0.22
2022-12-01T00:23:23.804Z,0.14
2022-12-01T00:26:27.331Z,0.06
2022-12-01T00:29:29.412Z,0.01
2022-12-01T00:32:31.710Z,-0.03
2022-12-01T00:35:33.803Z,-0.04
2022-12-01T00:38:36.083Z,-0.03
2022-12-01T00:41:38.114Z,-0.01
2022-12-01T00:44:40.255Z,0.01
2022-12-01T00:47:42.302Z,0.04
2022-12-01T00:50:44.971Z,0.08
2022-12-01T00:53:47.022Z,0.11
2022-12-01T00:56:49.011Z,0.13
2022-12-01T00:59:51.108Z,0.08
2022-12-01T01:02:53.277Z,0.08
2022-12-01T01:05:55.479Z,0.10
2022-12-01T01:08:57.637Z,0.14
2022-12-01T01:11:59.757Z,0.17
2022-12-01T01:15:02.908Z,0.20
2022-12-01T01:18:05.968Z,0.24
2022-12-01T01:21:11.817Z,0.26
2022-12-01T01:24:13.935Z,0.30
2022-12-01T01:27:15.989Z,0.34
2022-12-01T01:30:18.693Z,0.37
2022-12-01T01:33:20.698Z,0.39
2022-12-01T01:36:23.482Z,0.41
2022-12-01T01:39:25.508Z,0.43
2022-12-01T01:42:27.571Z,0.44
2022-12-01T01:45:30.125Z,0.45
2022-12-01T01:48:34.375Z,0.47
2022-12-01T01:51:45.301Z,0.48
2022-12-01T01:54:51.341Z,0.50
2022-12-01T01:57:53.489Z,0.50
2022-12-01T02:00:55.667Z,0.49
2022-12-01T02:03:58.765Z,0.51
2022-12-01T02:07:01.028Z,0.51
2022-12-01T02:10:06.023Z,0.53
2022-12-01T02:13:30.277Z,0.56
2022-12-01T02:17:02.235Z,0.55
2022-12-01T02:20:16.620Z,0.56
2022-12-01T02:23:39.985Z,0.56
2022-12-01T02:26:51.126Z,0.56
2022-12-01T02:29:56.277Z,0.54
2022-12-01T02:33:09.448Z,0.50
2022-12-01T02:36:28.506Z,0.48
2022-12-01T02:39:30.659Z,0.47
2022-12-01T02:42:52.381Z,0.47
2022-12-01T02:46:00.936Z,0.46
2022-12-01T02:49:10.119Z,0.44
2022-12-01T02:52:14.300Z,0.36
2022-12-01T02:55:16.385Z,0.34
2022-12-01T02:58:19.028Z,0.34
2022-12-01T03:01:32.995Z,0.30
2022-12-01T03:04:39.447Z,0.27
2022-12-01T03:08:01.970Z,0.23
2022-12-01T03:11:04.248Z,0.19
2022-12-01T03:14:26.022Z,0.17
2022-12-01T03:18:11.483Z,0.15
2022-12-01T03:21:25.740Z,0.13
2022-12-01T03:24:33.143Z,0.09
2022-12-01T03:27:41.785Z,0.02
2022-12-01T03:30:57.366Z,-0.03
2022-12-01T03:34:05.181Z,-0.07
2022-12-01T03:37:18.211Z,-0.09
2022-12-01T03:40:27.385Z,-0.11
2022-12-01T03:43:35.337Z,-0.17
2022-12-01T03:46:50.349Z,-0.20
2022-12-01T03:49:54.149Z,-0.25
2022-12-01T03:53:21.793Z,-0.32
2022-12-01T03:56:26.677Z,-0.37
2022-12-01T03:59:30.295Z,-0.40
2022-12-01T04:02:32.700Z,-0.45
2022-12-01T04:05:35.486Z,-0.49
2022-12-01T04:08:37.995Z,-0.50
2022-12-01T04:11:58.637Z,-0.47
2022-12-01T04:15:10.380Z,-0.48
2022-12-01T04:18:12.426Z,-0.52
2022-12-01T04:21:14.431Z,-0.51
2022-12-01T04:24:16.535Z,-0.51
2022-12-01T04:27:19.459Z,-0.49
2022-12-01T04:30:21.488Z,-0.46
2022-12-01T04:33:23.554Z,-0.43
2022-12-01T04:36:26.980Z,-0.42
2022-12-01T04:39:29.046Z,-0.40
2022-12-01T04:42:31.163Z,-0.41
2022-12-01T04:45:33.181Z,-0.39
2022-12-01T04:48:36.677Z,-0.39
2022-12-01T04:51:38.865Z,-0.35
2022-12-01T04:54:40.893Z,-0.31
2022-12-01T04:57:42.939Z,-0.25
2022-12-01T05:00:45.256Z,-0.24
2022-12-01T05:03:51.673Z,-0.22
2022-12-01T05:06:55.663Z,-0.21
2022-12-01T05:09:58.342Z,-0.19
2022-12-01T05:13:00.668Z,-0.19
2022-12-01T05:16:08.374Z,-0.20
2022-12-01T05:19:29.234Z,-0.23
2022-12-01T05:22:57.217Z,-0.23
2022-12-01T05:25:53.545Z,-0.19
2022-12-01T05:28:55.703Z,-0.20
2022-12-01T05:31:57.768Z,-0.19
2022-12-01T05:34:59.867Z,-0.19
2022-12-01T05:38:07.501Z,-0.17
2022-12-01T05:41:11.160Z,-0.14
2022-12-01T05:44:13.193Z,-0.10
2022-12-01T05:47:15.256Z,-0.08
2022-12-01T05:50:17.420Z,-0.05
2022-12-01T05:53:20.222Z,-0.03
2022-12-01T05:56:22.250Z,0.01
2022-12-01T05:59:24.436Z,0.04
2022-12-01T06:02:29.500Z,0.05
2022-12-01T06:05:32.079Z,0.09
2022-12-01T06:08:34.119Z,0.10
2022-12-01T06:11:36.263Z,0.09
2022-12-01T06:14:38.457Z,0.08
2022-12-01T06:17:40.954Z,0.08
2022-12-01T06:20:43.004Z,0.06
2022-12-01T06:23:45.122Z,0.07
2022-12-01T06:26:47.290Z,0.08
2022-12-01T06:29:49.993Z,0.13
2022-12-01T06:32:52.502Z,0.18
2022-12-01T06:36:01.739Z,0.21
2022-12-01T06:39:10.303Z,0.24
2022-12-01T06:42:12.542Z,0.27
2022-12-01T06:45:14.896Z,0.32
2022-12-01T06:48:16.961Z,0.36
2022-12-01T06:51:19.097Z,0.42
2022-12-01T06:54:21.577Z,0.47
2022-12-01T06:57:23.679Z,0.53
2022-12-01T07:00:26.163Z,0.57
2022-12-01T07:03:28.232Z,0.61
2022-12-01T07:06:31.522Z,0.70
2022-12-01T07:09:34.245Z,0.73
2022-12-01T07:12:36.366Z,0.77
2022-12-01T07:15:39.133Z,0.80
2022-12-01T07:18:41.447Z,0.81
2022-12-01T07:21:43.693Z,0.88
2022-12-01T07:24:45.807Z,0.90
2022-12-01T07:27:48.054Z,0.95
2022-12-01T07:30:50.132Z,0.98
2022-12-01T07:33:52.805Z,1.01
2022-12-01T07:36:54.860Z,1.02
2022-12-01T07:39:56.925Z,1.05
2022-12-01T07:42:58.954Z,1.07
2022-12-01T07:46:22.591Z,1.09
2022-12-01T07:49:25.852Z,1.12
2022-12-01T07:52:28.019Z,1.17
2022-12-01T07:55:30.115Z,1.24
2022-12-01T07:58:32.763Z,1.30
2022-12-01T08:01:34.851Z,1.39
2022-12-01T08:04:37.251Z,1.51
2022-12-01T08:07:39.483Z,1.66
2022-12-01T08:10:41.610Z,1.89
2022-12-01T08:13:44.179Z,2.12
2022-12-01T08:16:48.110Z,2.28
2022-12-01T08:19:50.582Z,2.57
2022-12-01T08:22:53.015Z,2.86
2022-12-01T08:25:55.274Z,3.04
2022-12-01T08:28:58.167Z,3.14
2022-12-01T08:32:00.234Z,3.20
2022-12-01T08:35:02.398Z,3.20
2022-12-01T08:38:05.159Z,3.16
2022-12-01T08:41:09.087Z,3.11
2022-12-01T08:44:11.488Z,3.13
2022-12-01T08:47:18.513Z,3.16
2022-12-01T08:50:20.825Z,3.20
2022-12-01T08:53:22.910Z,3.27
2022-12-01T08:56:26.499Z,3.32
2022-12-01T08:59:28.537Z,3.30
2022-12-01T09:02:30.890Z,3.33
2022-12-01T09:05:32.960Z,3.34
2022-12-01T09:08:36.994Z,3.22
2022-12-01T09:11:40.062Z,3.16
2022-12-01T09:14:48.403Z,3.10
2022-12-01T09:17:50.519Z,3.05
2022-12-01T09:20:52.907Z,3.06
2022-12-01T09:23:55.105Z,3.00
2022-12-01T09:26:58.665Z,3.02
2022-12-01T09:30:00.696Z,3.13
2022-12-01T09:33:02.822Z,3.30
2022-12-01T09:36:07.854Z,3.44
2022-12-01T09:39:14.082Z,3.66
2022-12-01T09:42:18.798Z,3.70
2022-12-01T09:45:28.200Z,3.69
2022-12-01T09:48:42.909Z,3.66
2022-12-01T09:51:45.341Z,3.56
2022-12-01T09:54:48.309Z,3.51
2022-12-01T09:57:54.464Z,3.50
2022-12-01T10:00:57.852Z,3.43
2022-12-01T10:04:08.346Z,3.34
2022-12-01T10:07:31.845Z,3.37
2022-12-01T10:10:38.481Z,3.45
2022-12-01T10:13:43.653Z,3.53
2022-12-01T10:17:03.802Z,3.65
2022-12-01T10:20:33.592Z,3.69
2022-12-01T10:24:04.515Z,3.67
2022-12-01T10:27:38.635Z,3.62
2022-12-01T10:31:12.727Z,3.60
2022-12-01T10:34:18.346Z,3.62
2022-12-01T10:37:25.312Z,3.60
2022-12-01T10:40:28.322Z,3.70
2022-12-01T10:43:39.558Z,3.82
2022-12-01T10:46:52.987Z,4.03
2022-12-01T10:49:56.456Z,4.13
2022-12-01T10:52:58.492Z,4.25
2022-12-01T10:56:12.293Z,4.17
2022-12-01T10:59:25.805Z,4.06
2022-12-01T11:02:29.844Z,4.14
2022-12-01T11:05:38.185Z,4.03
2022-12-01T11:08:45.638Z,4.05
2022-12-01T11:11:56.183Z,4.05
2022-12-01T11:14:59.247Z,4.03
2022-12-01T11:18:06.979Z,4.22
2022-12-01T11:21:35.194Z,4.42
2022-12-01T11:24:42.505Z,4.91
2022-12-01T11:27:54.395Z,5.36
2022-12-01T11:31:02.795Z,5.85
2022-12-01T11:34:05.414Z,5.22
2022-12-01T11:37:15.968Z,5.06
2022-12-01T11:40:29.719Z,4.82
2022-12-01T11:43:31.789Z,4.82
2022-12-01T11:46:45.984Z,4.81
2022-12-01T11:49:55.185Z,4.88
2022-12-01T11:52:57.323Z,4.78
2022-12-01T11:56:18.993Z,4.76
2022-12-01T11:59:26.814Z,4.82
2022-12-01T12:03:19.534Z,4.92
2022-12-01T12:06:43.939Z,5.02
2022-12-01T12:10:04.365Z,5.12
2022-12-01T12:13:15.735Z,5.06
2022-12-01T12:16:25.333Z,5.09
2022-12-01T12:20:07.138Z,4.74
2022-12-01T12:23:45.409Z,4.60
2022-12-01T12:27:19.923Z,4.68
2022-12-01T12:30:26.718Z,4.75
2022-12-01T12:34:10.081Z,4.75
2022-12-01T12:37:31.595Z,4.80
2022-12-01T12:41:09.576Z,4.72
2022-12-01T12:44:41.525Z,4.67
2022-12-01T12:47:57.559Z,4.63
2022-12-01T12:51:13.445Z,4.69
2022-12-01T12:54:44.800Z,4.70
2022-12-01T12:57:55.543Z,4.39
2022-12-01T13:01:07.805Z,4.30
2022-12-01T13:04:16.805Z,4.36
2022-12-01T13:07:28.212Z,4.24
2022-12-01T13:10:50.895Z,4.17
2022-12-01T13:14:20.062Z,3.99
2022-12-01T13:17:37.274Z,3.85
2022-12-01T13:20:40.502Z,3.70
2022-12-01T13:23:44.216Z,3.61
2022-12-01T13:26:53.622Z,3.63
2022-12-01T13:29:56.515Z,3.71
2022-12-01T13:33:04.174Z,3.71
2022-12-01T13:36:44.991Z,3.63
2022-12-01T13:39:39.423Z,3.48
2022-12-01T13:42:41.793Z,3.47
2022-12-01T13:45:43.938Z,3.39
2022-12-01T13:48:46.006Z,3.37
2022-12-01T13:52:15.724Z,3.36
2022-12-01T13:55:27.169Z,3.28
2022-12-01T13:58:35.280Z,3.21
2022-12-01T14:01:44.311Z,3.19
2022-12-01T14:04:46.544Z,3.13
2022-12-01T14:07:51.048Z,3.12
2022-12-01T14:10:57.236Z,3.12
2022-12-01T14:14:03.786Z,3.11
2022-12-01T14:17:06.748Z,3.12
2022-12-01T14:20:14.926Z,3.07
2022-12-01T14:23:29.271Z,2.98
2022-12-01T14:26:31.919Z,2.88
2022-12-01T14:29:44.645Z,2.88
2022-12-01T14:32:46.758Z,2.86
2022-12-01T14:35:48.926Z,2.83
2022-12-01T14:38:55.454Z,2.78
2022-12-01T14:42:42.308Z,2.75
2022-12-01T14:46:04.793Z,2.65
2022-12-01T14:49:13.111Z,2.57
2022-12-01T14:52:34.923Z,2.53
2022-12-01T14:55:43.520Z,2.50
2022-12-01T14:59:00.087Z,2.46
2022-12-01T15:02:09.751Z,2.43
2022-12-01T15:05:15.913Z,2.41
2022-12-01T15:11:53.687Z,2.39
2022-12-01T15:14:55.896Z,2.39
2022-12-01T15:18:01.875Z,2.39
2022-12-01T15:21:10.080Z,2.36
2022-12-01T15:24:23.904Z,2.31
2022-12-01T15:27:31.719Z,2.27
2022-12-01T15:30:33.934Z,2.22
2022-12-01T15:33:39.207Z,2.18
2022-12-01T15:36:41.944Z,2.15
2022-12-01T15:39:47.548Z,2.12
2022-12-01T15:43:16.907Z,2.10
2022-12-01T15:46:19.778Z,2.04
2022-12-01T15:49:33.448Z,2.01
2022-12-01T15:52:45.158Z,1.98
2022-12-01T15:55:52.939Z,1.93
2022-12-01T15:59:17.090Z,1.88
2022-12-01T16:02:25.410Z,1.82
2022-12-01T16:05:33.709Z,1.79
2022-12-01T16:08:36.070Z,1.75
2022-12-01T16:11:38.271Z,1.71
2022-12-01T16:15:01.784Z,1.67
2022-12-01T16:18:28.881Z,1.65
2022-12-01T16:21:56.198Z,1.64
2022-12-01T16:24:58.570Z,1.60
2022-12-01T16:28:02.151Z,1.53
2022-12-01T16:31:08.297Z,1.47
2022-12-01T16:34:43.995Z,1.41
2022-12-01T16:37:40.041Z,1.32
2022-12-01T16:40:43.873Z,1.24
2022-12-01T16:44:05.717Z,1.18
2022-12-01T16:47:23.968Z,1.13
2022-12-01T16:50:26.157Z,1.07
2022-12-01T16:53:28.706Z,0.97
2022-12-01T16:56:31.205Z,0.88
2022-12-01T16:59:33.716Z,0.81
2022-12-01T17:02:36.593Z,0.67
2022-12-01T17:05:40.776Z,0.56
2022-12-01T17:08:43.087Z,0.47
2022-12-01T17:11:45.776Z,0.42
2022-12-01T17:14:48.777Z,0.36
2022-12-01T17:17:53.719Z,0.27
2022-12-01T17:21:00.568Z,0.15
2022-12-01T17:24:04.815Z,0.05
2022-12-01T17:27:07.913Z,0.03
2022-12-01T17:30:11.232Z,-0.08
2022-12-01T17:33:14.013Z,-0.25
2022-12-01T17:36:17.422Z,-0.33
2022-12-01T17:39:20.343Z,-0.49
2022-12-01T17:42:23.483Z,-0.63
2022-12-01T17:45:25.687Z,-0.81
2022-12-01T17:48:28.279Z,-0.92
2022-12-01T17:51:30.496Z,-1.00
2022-12-01T17:54:34.593Z,-1.02
2022-12-01T17:57:37.064Z,-1.00
2022-12-01T18:00:39.928Z,-1.08
2022-12-01T18:03:43.221Z,-1.17
2022-12-01T18:06:50.812Z,-1.28
2022-12-01T18:09:56.432Z,-1.38
2022-12-01T18:12:59.220Z,-1.45
2022-12-01T18:16:07.901Z,-1.51
2022-12-01T18:19:11.678Z,-1.51
2022-12-01T18:22:16.435Z,-1.52
2022-12-01T18:25:19.188Z,-1.50
2022-12-01T18:28:22.843Z,-1.47
2022-12-01T18:31:26.369Z,-1.47
2022-12-01T18:34:32.708Z,-1.42
2022-12-01T18:37:37.054Z,-1.40
2022-12-01T18:40:40.816Z,-1.35
2022-12-01T18:43:44.761Z,-1.30
2022-12-01T18:46:47.787Z,-1.27
2022-12-01T18:49:50.378Z,-1.26
2022-12-01T18:52:55.025Z,-1.26
2022-12-01T18:55:58.060Z,-1.24
2022-12-01T18:59:07.093Z,-1.20
2022-12-01T19:02:11.253Z,-1.17
2022-12-01T19:05:14.359Z,-1.12
2022-12-01T19:08:20.980Z,-1.08
2022-12-01T19:11:24.868Z,-1.06
2022-12-01T19:14:29.973Z,-1.06
2022-12-01T19:17:33.277Z,-1.04
2022-12-01T19:20:38.558Z,-1.03
2022-12-01T19:23:43.908Z,-1.04
2022-12-01T19:26:46.819Z,-1.03
2022-12-01T19:29:50.299Z,-1.02
2022-12-01T19:32:55.450Z,-0.97
2022-12-01T19:35:58.574Z,-0.95
2022-12-01T19:39:06.054Z,-0.92
2022-12-01T19:42:12.509Z,-0.90
2022-12-01T19:45:15.698Z,-0.88
2022-12-01T19:48:19.539Z,-0.87
2022-12-01T19:51:25.843Z,-0.87
2022-12-01T19:54:29.578Z,-0.87
2022-12-01T19:57:32.737Z,-0.89
2022-12-01T20:00:35.929Z,-0.91
2022-12-01T20:03:51.855Z,-0.93
2022-12-01T20:06:54.919Z,-0.95
2022-12-01T20:09:58.159Z,-0.96
2022-12-01T20:13:01.506Z,-0.98
2022-12-01T20:16:13.014Z,-0.97
2022-12-01T20:19:21.220Z,-0.99
2022-12-01T20:22:26.863Z,-1.02
2022-12-01T20:25:30.209Z,-1.02
2022-12-01T20:28:34.999Z,-1.04
2022-12-01T20:31:41.008Z,-1.05
2022-12-01T20:34:44.799Z,-1.08
2022-12-01T20:37:47.916Z,-1.10
2022-12-01T20:40:52.757Z,-1.09
2022-12-01T20:43:55.621Z,-1.13
2022-12-01T20:46:58.858Z,-1.12
2022-12-01T20:50:01.868Z,-1.12
2022-12-01T20:53:04.717Z,-1.12
2022-12-01T20:56:12.076Z,-1.12
2022-12-01T20:59:15.102Z,-1.10
2022-12-01T21:02:18.146Z,-1.09
2022-12-01T21:05:21.053Z,-1.07
2022-12-01T21:08:23.436Z,-1.07
2022-12-01T21:11:48.786Z,-1.05
2022-12-01T21:15:13.509Z,-1.05
2022-12-01T21:18:29.353Z,-1.07
2022-12-01T21:21:37.463Z,-1.09
2022-12-01T21:24:43.713Z,-1.12
2022-12-01T21:27:47.352Z,-1.15
2022-12-01T21:30:51.621Z,-1.14
2022-12-01T21:33:54.555Z,-1.14
2022-12-01T21:37:02.273Z,-1.16
2022-12-01T21:40:23.855Z,-1.17
2022-12-01T21:43:26.231Z,-1.18
2022-12-01T21:46:28.537Z,-1.18
2022-12-01T21:49:39.755Z,-1.19
2022-12-01T21:52:44.839Z,-1.20
2022-12-01T21:55:48.139Z,-1.22
2022-12-01T21:58:51.103Z,-1.26
2022-12-01T22:01:57.492Z,-1.30
2022-12-01T22:05:00.220Z,-1.32
2022-12-01T22:08:24.824Z,-1.33
2022-12-01T22:11:28.984Z,-1.34
2022-12-01T22:14:35.532Z,-1.32
2022-12-01T22:17:37.950Z,-1.31
2022-12-01T22:20:40.021Z,-1.32
2022-12-01T22:23:42.016Z,-1.31
2022-12-01T22:26:56.715Z,-1.31
2022-12-01T22:30:20.888Z,-1.29
2022-12-01T22:33:28.600Z,-1.30
2022-12-01T22:36:32.297Z,-1.29
2022-12-01T22:39:34.393Z,-1.33
2022-12-01T22:42:36.712Z,-1.33
2022-12-01T22:45:39.282Z,-1.32
2022-12-01T22:48:44.626Z,-1.30
2022-12-01T22:51:50.933Z,-1.31
2022-12-01T22:54:53.256Z,-1.34
2022-12-01T22:57:55.376Z,-1.35
2022-12-01T23:01:20.177Z,-1.35
2022-12-01T23:04:31.342Z,-1.36
2022-12-01T23:07:36.695Z,-1.37
2022-12-01T23:10:40.910Z,-1.37
2022-12-01T23:13:42.940Z,-1.35
2022-12-01T23:16:45.178Z,-1.34
2022-12-01T23:19:48.718Z,-1.35
2022-12-01T23:22:55.015Z,-1.33
2022-12-01T23:25:57.471Z,-1.32
2022-12-01T23:29:00.769Z,-1.33
2022-12-01T23:32:02.913Z,-1.34
2022-12-01T23:35:07.218Z,-1.38
2022-12-01T23:38:19.660Z,-1.39
2022-12-01T23:41:36.616Z,-1.37
2022-12-01T23:44:45.785Z,-1.35
2022-12-01T23:47:48.097Z,-1.34
2022-12-01T23:50:53.033Z,-1.35
2022-12-01T23:53:56.986Z,-1.34
2022-12-01T23:57:03.185Z,-1.33
